Time;durP1;ratioP1;P1;durP2;ratioP2;P2;SDS_P1;SDS_P2;PMS_P1;PMS_P2;Temp;Humidity;BMP_temperature;BMP_pressure;BME280_temperature;BME280_humidity;BME280_pressure;Samples;Min_cycle;Max_cycle;Signal;HPM_P1;HPM_P2
2022/01/20 00:01:50;;;;;;;25.73;5.37;;;3.50;99.90;;;;;;4999773;28;20687;-59
2022/01/20 00:26:09;;;;;;;28.83;5.37;;;3.50;99.90;;;;;;4987029;28;20232;-60
2022/01/20 00:28:45;;;;;;;30.33;6.17;;;3.60;90.80;;;;;;4984588;28;20260;-58
2022/01/20 00:38:43;;;;;;;36.20;5.43;;;3.50;1.00;;;;;;4997488;28;20208;-59
2022/01/20 00:41:15;;;;;;;31.30;5.53;;;3.50;1.00;;;;;;4983697;28;20254;-59
2022/01/20 00:43:42;;;;;;;23.47;5.20;;;3.40;1.00;;;;;;4984301;28;20205;-59
2022/01/20 00:46:10;;;;;;;30.70;5.83;;;3.40;1.00;;;;;;4967214;28;20812;-58
2022/01/20 00:48:37;;;;;;;30.97;5.93;;;3.40;1.00;;;;;;4980030;28;20223;-59
2022/01/20 00:51:08;;;;;;;27.83;5.77;;;3.40;99.90;;;;;;4983630;28;20253;-59
2022/01/20 00:53:36;;;;;;;35.43;6.17;;;3.30;99.90;;;;;;4983823;28;20204;-58
2022/01/20 00:56:03;;;;;;;28.73;6.27;;;3.30;99.90;;;;;;4984851;28;20236;-58
2022/01/20 00:58:30;;;;;;;36.60;6.33;;;3.40;1.00;;;;;;5001389;28;20196;-58
2022/01/20 01:00:57;;;;;;;38.50;6.87;;;3.50;1.00;;;;;;4980887;28;20278;-59
2022/01/20 01:03:24;;;;;;;33.80;6.77;;;3.60;1.00;;;;;;4996865;28;20853;-58
2022/01/20 01:06:14;;;;;;;27.33;5.90;;;3.60;99.90;;;;;;4980838;28;20193;-59
2022/01/20 01:08:40;;;;;;;25.57;5.07;;;3.70;99.90;;;;;;4979651;28;20209;-59
2022/01/20 01:11:07;;;;;;;26.13;4.93;;;3.80;1.00;;;;;;4983311;28;20223;-58
2022/01/20 01:13:37;;;;;;;28.27;5.70;;;3.80;1.00;;;;;;5000792;28;20264;-58
2022/01/20 01:16:08;;;;;;;37.20;5.20;;;3.80;1.00;;;;;;4976659;28;20274;-59
2022/01/20 01:21:30;;;;;;;27.07;5.20;;;3.80;99.90;;;;;;4978947;28;20283;-58
2022/01/20 01:23:57;;;;;;;22.93;6.00;;;3.80;99.90;;;;;;4968931;28;20204;-59
2022/01/20 01:26:27;;;;;;;34.67;5.50;;;3.70;99.90;;;;;;5001222;28;20197;-58
2022/01/20 01:28:59;;;;;;;23.83;4.70;;;3.70;99.90;;;;;;4999041;28;20304;-58
2022/01/20 01:31:35;;;;;;;36.03;5.90;;;3.70;99.90;;;;;;4960302;28;20218;-58
2022/01/20 01:34:14;;;;;;;28.37;5.13;;;3.70;99.90;;;;;;4981922;28;20283;-58
2022/01/20 01:36:47;;;;;;;38.73;6.23;;;3.70;99.90;;;;;;4982251;28;20934;-59
2022/01/20 01:39:19;;;;;;;25.53;4.67;;;3.70;99.90;;;;;;4981974;28;20206;-59
2022/01/20 01:41:46;;;;;;;32.87;4.90;;;3.60;10.20;;;;;;4998646;28;20205;-59
2022/01/20 01:44:21;;;;;;;32.30;5.47;;;3.60;1.00;;;;;;4981239;28;20259;-58
2022/01/20 01:46:50;;;;;;;31.07;4.07;;;3.50;1.00;;;;;;4997925;28;20211;-58
2022/01/20 01:49:20;;;;;;;19.50;4.23;;;3.50;24.10;;;;;;4974605;28;20267;-58
2022/01/20 01:51:49;;;;;;;33.00;4.93;;;3.40;47.70;;;;;;4965867;28;20808;-58
2022/01/20 01:54:19;;;;;;;22.47;5.47;;;3.60;77.90;;;;;;5003322;28;20204;-58
2022/01/20 01:56:48;;;;;;;27.67;4.20;;;3.60;1.00;;;;;;5002262;28;20207;-58
2022/01/20 01:59:20;;;;;;;25.60;3.80;;;3.70;1.00;;;;;;4987499;28;20262;-58
2022/01/20 02:02:07;;;;;;;22.37;3.97;;;3.60;1.00;;;;;;5001890;28;20955;-58
2022/01/20 02:04:40;;;;;;;24.90;4.07;;;3.70;1.00;;;;;;5001408;28;20225;-59
2022/01/20 02:18:45;;;;;;;20.00;4.13;;;4.00;99.90;;;;;;4987777;28;20590;-59
2022/01/20 02:21:29;;;;;;;24.47;6.23;;;4.10;99.90;;;;;;4974462;28;20197;-59
2022/01/20 02:24:01;;;;;;;19.70;5.07;;;4.20;99.90;;;;;;4989425;28;20205;-59
2022/01/20 02:26:28;;;;;;;26.47;4.70;;;4.20;99.90;;;;;;4990445;28;20197;-59
2022/01/20 02:28:57;;;;;;;29.90;4.97;;;4.10;99.90;;;;;;4975785;28;20205;-58
2022/01/20 02:31:24;;;;;;;27.60;4.50;;;4.00;99.90;;;;;;4990603;28;20189;-59
2022/01/20 02:33:51;;;;;;;25.77;4.87;;;4.00;99.90;;;;;;4986323;28;20782;-59
2022/01/20 02:36:20;;;;;;;29.23;5.37;;;4.00;1.00;;;;;;4971743;28;20193;-59
2022/01/20 02:38:56;;;;;;;26.57;5.17;;;4.10;1.00;;;;;;4985067;28;20751;-59
2022/01/20 02:46:54;;;;;;;25.87;4.50;;;4.20;1.00;;;;;;5005972;28;20324;-59
2022/01/20 02:49:24;;;;;;;22.73;5.23;;;4.10;1.00;;;;;;4969589;28;20240;-59
2022/01/20 02:51:53;;;;;;;30.07;5.63;;;4.00;1.00;;;;;;4988979;28;20724;-59
2022/01/20 02:54:22;;;;;;;28.80;5.13;;;4.10;1.00;;;;;;4974141;28;20189;-59
2022/01/20 02:56:50;;;;;;;22.80;4.30;;;4.00;1.00;;;;;;4991970;28;20201;-59
2022/01/20 02:59:17;;;;;;;33.63;4.73;;;3.90;1.00;;;;;;4990495;28;20201;-59
2022/01/20 03:01:44;;;;;;;22.63;4.23;;;3.90;1.00;;;;;;4972880;28;20197;-58
2022/01/20 03:04:13;;;;;;;24.57;4.80;;;3.80;1.00;;;;;;4974373;28;20228;-58
2022/01/20 03:06:40;;;;;;;21.30;3.70;;;3.90;56.00;;;;;;5001599;28;20672;-59
2022/01/20 03:09:07;;;;;;;21.97;4.80;;;3.90;32.00;;;;;;4988780;28;20209;-59
2022/01/20 03:11:34;;;;;;;22.83;4.00;;;3.80;1.00;;;;;;4986490;28;20193;-59
2022/01/20 03:14:02;;;;;;;17.00;3.87;;;3.80;1.00;;;;;;4986332;28;20260;-59
2022/01/20 03:16:29;;;;;;;23.23;4.73;;;3.70;1.00;;;;;;4986824;28;20229;-59
2022/01/20 03:18:56;;;;;;;22.63;4.67;;;3.70;1.00;;;;;;4976956;28;20284;-59
2022/01/20 03:21:23;;;;;;;26.80;4.57;;;3.70;1.00;;;;;;4964840;28;20665;-59
2022/01/20 03:23:50;;;;;;;21.47;3.70;;;3.60;1.00;;;;;;4983798;28;20206;-59
2022/01/20 03:26:17;;;;;;;31.07;4.80;;;3.60;1.00;;;;;;4970775;28;21213;-58
2022/01/20 03:28:44;;;;;;;20.57;4.90;;;3.60;1.00;;;;;;4986162;28;20224;-59
2022/01/20 03:31:13;;;;;;;26.77;5.37;;;3.60;1.00;;;;;;4986992;28;20233;-59
2022/01/20 03:33:40;;;;;;;24.97;4.73;;;3.60;1.00;;;;;;4967434;28;20681;-59
2022/01/20 03:36:09;;;;;;;28.13;4.87;;;3.60;1.00;;;;;;4992310;28;20209;-58
2022/01/20 03:38:55;;;;;;;24.33;4.13;;;3.60;1.00;;;;;;4971891;28;20221;-59
2022/01/20 03:41:22;;;;;;;16.60;3.97;;;3.70;1.00;;;;;;4986464;28;20221;-59
2022/01/20 03:43:53;;;;;;;24.70;4.80;;;3.80;1.00;;;;;;4965660;28;20202;-59
2022/01/20 03:46:21;;;;;;;20.93;4.07;;;3.70;1.00;;;;;;4983181;28;20297;-59
2022/01/20 03:48:56;;;;;;;13.23;3.67;;;3.80;1.00;;;;;;4961965;28;20724;-59
2022/01/20 03:51:25;;;;;;;27.47;4.33;;;3.90;1.00;;;;;;4984947;28;20201;-59
2022/01/20 03:53:55;;;;;;;26.87;4.57;;;3.90;1.00;;;;;;4984955;28;20202;-59
2022/01/20 03:56:42;;;;;;;18.10;3.73;;;3.90;99.90;;;;;;4984908;28;20201;-58
2022/01/20 03:59:28;;;;;;;20.10;3.20;;;3.90;99.90;;;;;;4985963;28;20325;-58
2022/01/20 04:01:57;;;;;;;23.20;3.60;;;3.80;99.90;;;;;;4982273;28;20213;-58
2022/01/20 04:04:44;;;;;;;28.17;4.23;;;3.70;99.90;;;;;;4983729;28;20202;-58
2022/01/20 04:07:20;;;;;;;19.10;3.60;;;3.60;99.90;;;;;;4985116;28;20701;-58
2022/01/20 04:09:48;;;;;;;19.20;3.47;;;3.60;99.90;;;;;;4984783;28;20217;-58
2022/01/20 04:12:17;;;;;;;21.83;3.47;;;3.50;99.90;;;;;;4983688;28;20193;-58
2022/01/20 04:14:48;;;;;;;17.00;4.27;;;3.50;1.00;;;;;;4984259;28;20247;-58
2022/01/20 04:17:20;;;;;;;15.03;3.57;;;3.50;1.00;;;;;;4985263;28;20221;-58
2022/01/20 04:19:48;;;;;;;21.60;4.20;;;3.50;1.00;;;;;;4986943;28;20198;-58
2022/01/20 04:22:14;;;;;;;20.90;4.93;;;3.60;1.00;;;;;;4983673;28;20198;-58
2022/01/20 04:24:47;;;;;;;20.30;3.37;;;3.70;1.00;;;;;;4985173;28;20216;-58
2022/01/20 04:27:14;;;;;;;13.23;3.77;;;3.80;99.90;;;;;;4986966;28;20354;-59
2022/01/20 04:29:41;;;;;;;20.57;3.47;;;3.80;99.90;;;;;;4985594;28;20300;-58
2022/01/20 04:32:08;;;;;;;26.80;4.60;;;3.90;99.90;;;;;;4986887;28;20243;-58
2022/01/20 04:34:38;;;;;;;15.70;3.60;;;4.00;99.90;;;;;;4970546;28;20198;-59
2022/01/20 04:37:06;;;;;;;16.47;3.67;;;4.00;99.90;;;;;;4969424;28;20621;-59
2022/01/20 04:39:36;;;;;;;15.90;3.60;;;4.00;99.90;;;;;;4987161;28;20260;-59
2022/01/20 04:42:04;;;;;;;24.67;4.83;;;3.90;99.90;;;;;;5002334;28;20205;-59
2022/01/20 04:44:39;;;;;;;18.17;3.90;;;3.90;99.90;;;;;;4986566;28;21267;-59
2022/01/20 04:58:08;;;;;;;11.03;3.17;;;3.90;99.90;;;;;;4984831;28;20193;-59
2022/01/20 05:00:36;;;;;;;13.80;3.03;;;3.80;99.90;;;;;;4999107;28;20206;-59
2022/01/20 05:03:38;;;;;;;15.33;3.40;;;3.90;1.00;;;;;;4982232;28;20300;-59
2022/01/20 05:06:17;;;;;;;17.30;3.10;;;3.90;1.00;;;;;;4960694;28;20297;-59
2022/01/20 05:08:44;;;;;;;14.07;3.00;;;3.90;1.00;;;;;;4969511;28;20569;-58
2022/01/20 05:11:15;;;;;;;13.37;3.27;;;3.90;1.00;;;;;;4986417;28;20210;-58
2022/01/20 05:13:43;;;;;;;14.60;3.80;;;3.90;1.00;;;;;;4989389;28;20223;-58
2022/01/20 05:16:10;;;;;;;8.67;2.90;;;3.90;1.00;;;;;;5001321;28;20192;-58
2022/01/20 05:18:41;;;;;;;8.47;2.67;;;3.80;1.00;;;;;;5005806;28;20224;-59
2022/01/20 05:21:08;;;;;;;11.70;2.70;;;3.80;1.00;;;;;;5004530;28;20642;-59
2022/01/20 05:23:41;;;;;;;11.87;3.13;;;3.80;1.00;;;;;;5007212;28;20205;-59
2022/01/20 05:26:13;;;;;;;10.23;2.53;;;3.80;1.00;;;;;;5011749;28;20715;-59
2022/01/20 05:28:41;;;;;;;15.67;3.40;;;3.70;99.90;;;;;;4991686;28;20232;-59
2022/01/20 05:31:08;;;;;;;13.47;2.73;;;3.70;99.90;;;;;;4989172;28;20217;-59
2022/01/20 05:33:56;;;;;;;9.80;2.10;;;3.70;27.40;;;;;;5007993;28;20231;-59
2022/01/20 05:36:25;;;;;;;12.60;2.50;;;3.60;95.00;;;;;;5000829;28;21195;-59
2022/01/20 05:38:53;;;;;;;7.63;2.33;;;3.60;99.90;;;;;;4990618;28;20208;-59
2022/01/20 05:41:25;;;;;;;12.47;2.53;;;3.60;99.90;;;;;;4992927;28;20250;-59
2022/01/20 05:43:57;;;;;;;11.70;2.70;;;3.60;99.90;;;;;;5005583;28;20217;-59
2022/01/20 05:46:33;;;;;;;9.63;2.40;;;3.70;99.90;;;;;;4989390;28;20215;-59
2022/01/20 05:49:11;;;;;;;9.70;2.50;;;3.70;99.90;;;;;;4991321;28;20204;-58
2022/01/20 05:51:46;;;;;;;12.30;3.47;;;3.60;99.90;;;;;;4987747;28;20217;-59
2022/01/20 05:54:16;;;;;;;7.07;2.83;;;3.50;99.90;;;;;;4992405;28;20193;-58
2022/01/20 05:56:43;;;;;;;8.80;2.83;;;3.40;99.90;;;;;;4991297;28;20197;-59
2022/01/20 05:59:11;;;;;;;11.30;2.90;;;3.40;99.90;;;;;;4991124;28;20638;-58
2022/01/20 06:01:39;;;;;;;18.10;4.23;;;3.40;99.90;;;;;;5004992;28;20754;-59
2022/01/20 06:04:12;;;;;;;14.80;5.40;;;3.50;99.90;;;;;;4980413;28;20315;-58
2022/01/20 06:06:40;;;;;;;13.90;2.60;;;3.50;99.90;;;;;;4990878;28;20197;-58
2022/01/20 06:09:08;;;;;;;19.17;3.60;;;3.50;99.90;;;;;;5001105;28;20211;-58
2022/01/20 06:11:35;;;;;;;16.73;3.10;;;3.50;99.90;;;;;;5008598;28;20703;-58
2022/01/20 06:14:03;;;;;;;11.70;3.20;;;3.50;99.90;;;;;;4992193;28;20337;-58
2022/01/20 06:16:32;;;;;;;15.63;4.27;;;3.50;99.90;;;;;;5005269;28;20197;-58
2022/01/20 06:19:03;;;;;;;18.87;5.57;;;3.40;99.90;;;;;;4992900;28;20320;-58
2022/01/20 06:21:30;;;;;;;16.50;3.97;;;3.30;99.90;;;;;;4991411;28;20212;-58
2022/01/20 06:23:57;;;;;;;23.13;7.27;;;3.30;1.00;;;;;;4990354;28;20219;-58
2022/01/20 06:26:26;;;;;;;17.20;6.20;;;3.30;1.00;;;;;;4987891;28;20768;-58
2022/01/20 06:28:56;;;;;;;17.10;4.40;;;3.30;1.00;;;;;;4977182;28;20205;-58
2022/01/20 06:31:23;;;;;;;19.17;5.33;;;3.40;1.00;;;;;;4977218;28;20217;-58
2022/01/20 06:33:51;;;;;;;14.33;3.97;;;3.30;1.00;;;;;;4984586;28;20204;-58
2022/01/20 06:36:21;;;;;;;15.43;3.33;;;3.30;1.00;;;;;;4982957;28;20201;-58
2022/01/20 06:38:51;;;;;;;16.50;2.83;;;3.30;1.00;;;;;;5004873;28;20259;-58
2022/01/20 06:41:18;;;;;;;14.03;3.47;;;3.30;1.00;;;;;;4984903;28;20220;-58
2022/01/20 06:43:45;;;;;;;15.67;2.80;;;3.30;1.00;;;;;;4990619;28;20278;-58
2022/01/20 06:46:17;;;;;;;12.43;3.00;;;3.30;1.00;;;;;;5004455;28;20205;-59
2022/01/20 06:48:53;;;;;;;14.13;3.13;;;3.30;1.00;;;;;;4980448;28;20201;-58
2022/01/20 06:51:30;;;;;;;20.83;3.93;;;3.20;1.00;;;;;;4971574;28;20620;-58
2022/01/20 06:53:57;;;;;;;13.53;3.10;;;3.20;1.00;;;;;;4983418;28;20723;-58
2022/01/20 06:56:24;;;;;;;14.27;3.10;;;3.10;1.00;;;;;;4982029;28;20212;-58
2022/01/20 06:59:07;;;;;;;19.13;3.90;;;3.00;1.00;;;;;;5003669;28;20200;-58
2022/01/20 07:01:34;;;;;;;16.37;3.23;;;2.90;1.00;;;;;;4986142;28;20205;-58
2022/01/20 07:04:03;;;;;;;15.93;2.90;;;2.70;1.00;;;;;;4965342;28;20205;-58
2022/01/20 07:06:30;;;;;;;17.40;3.33;;;2.50;1.00;;;;;;4989204;28;20263;-58
2022/01/20 07:09:18;;;;;;;15.17;3.00;;;2.30;1.00;;;;;;5006977;28;20588;-58
2022/01/20 07:11:47;;;;;;;15.63;4.00;;;2.20;1.00;;;;;;4990655;28;20290;-59
2022/01/20 07:14:15;;;;;;;16.27;2.97;;;2.20;1.00;;;;;;4988425;28;20240;-59
2022/01/20 07:16:43;;;;;;;13.57;3.10;;;2.10;1.00;;;;;;4986880;28;20449;-58
2022/01/20 07:19:12;;;;;;;14.93;3.47;;;2.20;1.00;;;;;;4986363;28;21241;-58
2022/01/20 07:21:42;;;;;;;10.57;3.13;;;2.30;1.00;;;;;;4986040;28;20675;-59
2022/01/20 07:24:14;;;;;;;13.30;3.50;;;2.50;1.00;;;;;;5005876;28;20212;-58
2022/01/20 07:26:42;;;;;;;11.13;3.17;;;2.50;1.00;;;;;;4989333;28;20259;-58
2022/01/20 07:29:37;;;;;;;15.17;2.90;;;2.60;1.00;;;;;;5002676;28;20216;-59
2022/01/20 07:32:06;;;;;;;12.40;2.57;;;2.60;99.90;;;;;;5000977;28;20215;-58
2022/01/20 07:34:35;;;;;;;17.03;3.67;;;2.60;99.90;;;;;;5006598;28;20821;-58
2022/01/20 07:37:06;;;;;;;19.57;3.43;;;2.70;99.90;;;;;;4989302;28;20200;-59
2022/01/20 07:39:37;;;;;;;20.40;3.47;;;2.70;99.90;;;;;;4975578;28;20204;-58
2022/01/20 07:42:07;;;;;;;19.17;3.13;;;2.60;99.90;;;;;;4988766;28;20201;-59
2022/01/20 07:45:07;;;;;;;13.37;2.10;;;2.60;99.90;;;;;;4975779;28;20205;-58
2022/01/20 07:47:53;;;;;;;16.80;2.70;;;2.70;99.90;;;;;;5002524;28;20208;-58
2022/01/20 07:50:21;;;;;;;20.70;2.90;;;2.80;99.90;;;;;;4990447;28;20243;-58
2022/01/20 07:52:47;;;;;;;15.70;2.60;;;2.80;99.90;;;;;;4974630;28;20212;-58
2022/01/20 07:55:18;;;;;;;14.23;2.93;;;2.80;99.90;;;;;;4978674;28;20235;-58
2022/01/20 07:57:48;;;;;;;20.23;3.93;;;2.90;99.90;;;;;;5001326;28;20208;-58
2022/01/20 08:00:17;;;;;;;13.83;2.87;;;2.90;99.90;;;;;;4989243;28;20197;-57
2022/01/20 08:02:45;;;;;;;21.57;3.53;;;2.90;99.90;;;;;;5003759;28;20208;-57
2022/01/20 08:05:26;;;;;;;18.13;3.13;;;2.90;99.90;;;;;;4988781;28;20192;-58
2022/01/20 08:07:53;;;;;;;16.63;3.17;;;2.90;99.90;;;;;;4991102;28;20266;-59
2022/01/20 08:10:21;;;;;;;16.47;3.60;;;2.80;99.90;;;;;;4984604;28;20221;-59
2022/01/20 08:12:48;;;;;;;20.60;3.77;;;3.00;99.90;;;;;;4999656;28;20201;-59
2022/01/20 08:15:23;;;;;;;16.30;3.10;;;3.30;99.90;;;;;;4986281;28;20307;-59
2022/01/20 08:17:59;;;;;;;14.23;3.00;;;3.40;99.90;;;;;;4985713;28;20200;-60
2022/01/20 08:20:31;;;;;;;23.87;4.27;;;3.50;78.90;;;;;;4988006;28;20608;-60
2022/01/20 08:23:02;;;;;;;19.37;3.47;;;3.60;1.00;;;;;;4986202;28;20197;-59
2022/01/20 08:25:30;;;;;;;15.50;3.70;;;3.60;1.00;;;;;;4982402;28;20560;-59
2022/01/20 08:28:02;;;;;;;15.47;2.70;;;3.40;1.00;;;;;;4987966;28;20204;-60
2022/01/20 08:30:34;;;;;;;9.33;2.87;;;3.20;15.00;;;;;;4990222;28;20207;-60
2022/01/20 08:33:02;;;;;;;14.60;3.07;;;3.30;1.00;;;;;;4989780;28;20197;-59
2022/01/20 08:35:43;;;;;;;11.20;3.23;;;3.40;1.00;;;;;;4974680;28;20339;-60
2022/01/20 08:38:16;;;;;;;21.10;3.10;;;3.50;1.00;;;;;;4986122;28;20197;-59
2022/01/20 08:40:45;;;;;;;15.30;3.17;;;3.50;1.00;;;;;;4971035;28;20213;-60
2022/01/20 08:43:12;;;;;;;18.37;4.17;;;3.70;1.00;;;;;;4989015;28;20216;-59
2022/01/20 08:45:43;;;;;;;19.57;2.97;;;4.00;1.00;;;;;;4989017;28;20205;-59
2022/01/20 08:48:14;;;;;;;19.10;3.17;;;4.50;1.00;;;;;;4989588;28;20228;-59
2022/01/20 08:50:59;;;;;;;20.07;3.63;;;4.90;1.00;;;;;;5004210;28;20352;-58
2022/01/20 08:53:31;;;;;;;17.63;3.03;;;4.90;1.00;;;;;;4984632;28;20199;-59
2022/01/20 08:56:01;;;;;;;15.97;3.80;;;5.00;1.00;;;;;;4978352;28;20676;-60
2022/01/20 08:58:31;;;;;;;22.23;4.10;;;4.70;99.90;;;;;;4991053;28;21678;-60
2022/01/20 09:01:00;;;;;;;14.87;3.03;;;4.50;1.00;;;;;;4981868;28;20605;-59
2022/01/20 09:03:28;;;;;;;13.73;3.20;;;4.50;1.00;;;;;;4970864;28;20304;-59
2022/01/20 09:05:56;;;;;;;13.40;3.57;;;4.40;1.00;;;;;;4969105;28;20213;-60
2022/01/20 09:08:28;;;;;;;15.43;5.20;;;4.20;1.00;;;;;;4981775;28;20592;-59
2022/01/20 09:11:18;;;;;;;14.20;3.63;;;4.10;1.00;;;;;;4986303;28;20809;-58
2022/01/20 09:16:41;;;;;;;10.27;2.37;;;4.00;1.00;;;;;;5004111;28;20260;-59
2022/01/20 09:19:18;;;;;;;22.57;2.97;;;3.80;1.00;;;;;;4986606;28;20292;-59
2022/01/20 09:21:57;;;;;;;8.63;2.33;;;3.80;1.00;;;;;;4970182;28;20565;-59
2022/01/20 09:24:26;;;;;;;20.13;4.30;;;3.90;1.00;;;;;;4963175;28;20693;-59
2022/01/20 09:26:56;;;;;;;13.13;4.00;;;3.80;1.00;;;;;;4987621;28;20197;-58
2022/01/20 09:29:23;;;;;;;10.07;2.97;;;3.80;1.00;;;;;;4984917;28;20254;-58
2022/01/20 09:31:51;;;;;;;14.13;3.00;;;3.90;1.00;;;;;;4987434;28;20227;-58
2022/01/20 09:34:25;;;;;;;13.70;3.63;;;4.10;1.00;;;;;;4987778;28;20251;-58
2022/01/20 09:36:52;;;;;;;11.10;2.57;;;4.50;99.90;;;;;;4977682;28;21617;-59
2022/01/20 09:39:20;;;;;;;22.87;3.50;;;7.00;1.00;;;;;;4959984;28;20323;-60
2022/01/20 09:42:00;;;;;;;16.63;4.10;;;6.70;1.00;;;;;;4978908;28;20251;-58
2022/01/20 09:44:31;;;;;;;12.07;3.03;;;11.00;99.90;;;;;;4999899;28;20218;-59
2022/01/20 09:46:58;;;;;;;10.10;3.10;;;14.70;99.90;;;;;;4971819;28;20267;-59
2022/01/20 09:49:44;;;;;;;15.73;3.30;;;17.00;99.90;;;;;;4975563;28;20569;-60
2022/01/20 09:52:24;;;;;;;9.97;3.23;;;16.10;99.90;;;;;;4983239;28;20228;-59
2022/01/20 09:55:00;;;;;;;12.17;3.80;;;13.00;99.90;;;;;;4967429;28;20270;-59
2022/01/20 09:57:27;;;;;;;11.47;3.30;;;11.40;99.90;;;;;;4966913;28;20215;-59
2022/01/20 09:59:54;;;;;;;13.03;3.00;;;9.30;99.90;;;;;;4982855;28;20598;-59
2022/01/20 10:02:23;;;;;;;12.03;3.20;;;9.90;99.90;;;;;;4967415;28;20197;-59
2022/01/20 10:04:56;;;;;;;15.00;3.33;;;12.00;99.90;;;;;;4967129;28;20213;-60
2022/01/20 10:07:33;;;;;;;14.77;3.50;;;10.50;99.90;;;;;;4983187;28;20585;-59
2022/01/20 10:10:15;;;;;;;10.83;2.60;;;9.10;99.90;;;;;;4999211;28;20548;-58
2022/01/20 10:13:08;;;;;;;12.27;3.37;;;9.90;99.90;;;;;;4990027;28;20647;-59
2022/01/20 10:16:14;;;;;;;8.60;2.77;;;10.90;99.90;;;;;;5009250;28;20220;-59
2022/01/20 10:19:01;;;;;;;15.70;5.20;;;12.90;99.90;;;;;;4990054;28;20224;-60
2022/01/20 10:21:36;;;;;;;12.87;4.33;;;16.10;99.90;;;;;;4993506;28;20201;-60
2022/01/20 10:24:28;;;;;;;11.43;3.47;;;15.20;99.90;;;;;;4979844;28;20567;-59
2022/01/20 10:27:15;;;;;;;9.97;3.47;;;11.60;99.90;;;;;;4965195;28;20221;-59
2022/01/20 10:30:00;;;;;;;15.83;5.07;;;9.70;99.90;;;;;;4975863;28;20950;-60
2022/01/20 10:32:51;;;;;;;17.73;3.90;;;8.20;1.00;;;;;;4990573;28;20778;-59
2022/01/20 10:35:25;;;;;;;12.93;3.43;;;7.40;1.00;;;;;;4990878;28;20649;-58
2022/01/20 10:37:57;;;;;;;12.07;3.07;;;7.50;1.00;;;;;;4973795;28;20220;-58
2022/01/20 10:40:29;;;;;;;9.97;2.43;;;7.80;1.00;;;;;;4982942;28;20193;-58
2022/01/20 10:43:02;;;;;;;11.23;3.30;;;9.40;99.90;;;;;;4988758;28;20260;-58
2022/01/20 10:45:30;;;;;;;11.80;2.67;;;9.50;99.90;;;;;;4989740;28;20204;-59
2022/01/20 10:48:00;;;;;;;13.43;2.67;;;9.60;99.90;;;;;;5006231;28;20208;-59
2022/01/20 10:50:37;;;;;;;10.40;2.93;;;10.20;99.90;;;;;;4991301;28;20205;-60
2022/01/20 10:53:21;;;;;;;11.03;2.87;;;12.20;99.90;;;;;;4989943;28;20738;-60
2022/01/20 10:56:05;;;;;;;9.00;2.17;;;12.20;99.90;;;;;;4991776;28;20207;-60
2022/01/20 10:58:32;;;;;;;10.73;3.37;;;14.10;99.90;;;;;;4991980;28;20193;-60
2022/01/20 11:01:04;;;;;;;15.00;3.57;;;12.90;99.90;;;;;;4997010;28;20192;-60
2022/01/20 11:03:35;;;;;;;11.57;2.70;;;11.30;99.90;;;;;;5010873;28;20192;-60
2022/01/20 11:06:03;;;;;;;9.13;2.87;;;10.70;99.90;;;;;;5012960;28;20200;-60
2022/01/20 11:08:40;;;;;;;7.23;2.37;;;10.60;99.90;;;;;;5004687;28;20193;-60
2022/01/20 11:11:09;;;;;;;17.37;4.70;;;11.30;99.90;;;;;;4992038;28;20270;-59
2022/01/20 11:13:57;;;;;;;15.67;3.27;;;12.00;99.90;;;;;;5010073;28;20308;-59
2022/01/20 11:16:24;;;;;;;25.60;7.80;;;11.30;99.90;;;;;;4989269;28;20692;-59
2022/01/20 11:18:53;;;;;;;35.67;5.63;;;12.50;99.90;;;;;;4989079;28;20193;-60
2022/01/20 11:21:25;;;;;;;135.30;17.47;;;11.50;99.90;;;;;;4989160;28;20251;-60
2022/01/20 11:23:55;;;;;;;16.30;3.73;;;11.10;99.90;;;;;;4989122;28;20197;-61
2022/01/20 11:26:58;;;;;;;12.50;2.90;;;9.80;99.90;;;;;;5008338;28;20772;-60
2022/01/20 11:30:02;;;;;;;13.73;3.13;;;8.60;99.90;;;;;;4999875;28;20205;-60
2022/01/20 11:32:56;;;;;;;12.53;3.10;;;7.80;99.90;;;;;;4989457;28;20233;-58
2022/01/20 11:35:51;;;;;;;9.57;2.43;;;7.60;1.00;;;;;;4990046;28;20336;-59
2022/01/20 11:38:22;;;;;;;11.67;2.67;;;6.90;1.00;;;;;;5005349;28;20698;-58
2022/01/20 11:40:50;;;;;;;13.63;3.20;;;6.60;1.00;;;;;;4985288;28;20198;-59
2022/01/20 11:43:18;;;;;;;11.60;3.57;;;6.30;1.00;;;;;;4978204;28;20328;-58
2022/01/20 11:45:51;;;;;;;14.43;3.43;;;6.50;1.00;;;;;;4994322;28;20259;-58
2022/01/20 11:48:25;;;;;;;10.40;2.77;;;7.00;1.00;;;;;;4998999;28;20902;-58
2022/01/20 11:51:04;;;;;;;7.70;2.57;;;7.20;1.00;;;;;;4987225;28;20292;-59
2022/01/20 11:53:42;;;;;;;9.93;2.13;;;7.20;1.00;;;;;;4990768;28;20233;-59
2022/01/20 11:56:10;;;;;;;407.83;46.07;;;7.20;1.00;;;;;;4989147;28;20633;-58
2022/01/20 11:58:50;;;;;;;13.03;3.10;;;7.50;1.00;;;;;;4985107;28;20189;-58
2022/01/20 12:01:19;;;;;;;14.20;3.07;;;7.50;1.00;;;;;;4988671;28;20201;-58
2022/01/20 12:03:51;;;;;;;16.43;3.77;;;7.00;1.00;;;;;;4989125;28;20216;-59
2022/01/20 12:06:36;;;;;;;7.13;2.40;;;6.70;1.00;;;;;;4988372;28;20221;-59
2022/01/20 12:09:14;;;;;;;12.33;3.93;;;6.40;1.00;;;;;;5003602;28;20194;-60
2022/01/20 12:11:47;;;;;;;17.20;2.97;;;6.40;1.00;;;;;;4983497;28;20220;-58
2022/01/20 12:14:35;;;;;;;10.57;2.50;;;6.60;1.00;;;;;;4975811;28;20714;-58
2022/01/20 12:17:06;;;;;;;6.80;2.47;;;7.10;1.00;;;;;;4985855;28;20225;-58
2022/01/20 12:19:34;;;;;;;8.87;2.27;;;7.00;1.00;;;;;;4986578;28;20225;-58
2022/01/20 12:22:09;;;;;;;12.07;3.07;;;6.70;1.00;;;;;;4987732;28;20197;-58
2022/01/20 12:24:37;;;;;;;8.67;2.70;;;6.50;1.00;;;;;;4982748;28;20295;-58
2022/01/20 12:27:18;;;;;;;12.47;3.90;;;6.30;1.00;;;;;;4986591;28;20237;-58
2022/01/20 12:29:45;;;;;;;12.20;2.80;;;6.20;1.00;;;;;;4984879;28;20267;-59
2022/01/20 12:32:18;;;;;;;14.53;3.40;;;6.40;1.00;;;;;;4986325;28;20217;-58
2022/01/20 12:34:59;;;;;;;10.73;2.60;;;7.90;99.90;;;;;;4984578;28;20186;-59
2022/01/20 12:37:34;;;;;;;14.07;2.13;;;9.20;99.90;;;;;;4986760;28;20206;-59
2022/01/20 12:40:18;;;;;;;7.40;2.40;;;10.00;99.90;;;;;;4986777;28;20194;-60
2022/01/20 12:42:45;;;;;;;7.90;2.43;;;10.10;99.90;;;;;;4984789;28;20607;-59
2022/01/20 12:48:17;;;;;;;9.63;2.47;;;8.30;99.90;;;;;;5001935;28;20214;-58
2022/01/20 12:50:55;;;;;;;8.43;2.70;;;8.10;99.90;;;;;;4985512;28;20546;-57
2022/01/20 12:53:52;;;;;;;9.33;2.30;;;8.00;99.90;;;;;;4984827;28;20228;-58
2022/01/20 12:56:30;;;;;;;10.97;2.83;;;8.70;99.90;;;;;;4985763;28;20210;-57
2022/01/20 12:58:57;;;;;;;10.07;2.77;;;8.50;99.90;;;;;;4963347;28;20656;-60
2022/01/20 13:01:44;;;;;;;7.73;2.73;;;8.20;99.90;;;;;;4980340;28;20212;-58
2022/01/20 13:04:14;;;;;;;8.27;2.43;;;8.00;99.90;;;;;;4981895;28;20205;-60
2022/01/20 13:06:51;;;;;;;9.00;2.73;;;7.30;99.90;;;;;;4988004;28;20205;-58
2022/01/20 13:09:21;;;;;;;11.20;2.80;;;6.90;1.00;;;;;;4985198;28;20252;-59
2022/01/20 13:11:59;;;;;;;11.77;2.50;;;6.50;1.00;;;;;;4984860;28;20236;-58
2022/01/20 13:14:39;;;;;;;9.60;2.47;;;6.30;1.00;;;;;;4985167;28;20273;-58
2022/01/20 13:17:11;;;;;;;6.73;2.33;;;6.20;1.00;;;;;;5001534;28;20204;-59
2022/01/20 13:19:39;;;;;;;9.40;2.57;;;6.10;1.00;;;;;;4985731;28;20550;-60
2022/01/20 13:22:29;;;;;;;11.57;2.63;;;6.00;1.00;;;;;;4981956;28;20212;-60
2022/01/20 13:25:13;;;;;;;15.07;2.50;;;6.00;1.00;;;;;;4981181;28;20201;-59
2022/01/20 13:28:01;;;;;;;14.80;2.70;;;5.90;1.00;;;;;;4966272;28;20208;-59
2022/01/20 13:30:36;;;;;;;15.13;4.27;;;6.00;1.00;;;;;;4981748;28;20228;-60
2022/01/20 13:33:14;;;;;;;8.40;2.30;;;5.90;1.00;;;;;;4980105;28;20506;-60
2022/01/20 13:35:44;;;;;;;11.80;3.07;;;5.60;1.00;;;;;;4986249;28;20240;-61
2022/01/20 13:38:13;;;;;;;8.43;2.20;;;5.20;1.00;;;;;;4985910;28;20217;-59
2022/01/20 13:40:46;;;;;;;7.13;3.07;;;5.10;1.00;;;;;;4984736;28;20217;-59
2022/01/20 13:46:05;;;;;;;8.00;2.47;;;4.70;51.00;;;;;;4982212;28;20197;-59
2022/01/20 13:48:33;;;;;;;7.47;2.47;;;4.70;99.90;;;;;;4989822;28;20201;-60
2022/01/20 13:51:04;;;;;;;4.63;1.47;;;4.70;99.90;;;;;;4990642;28;20198;-60
2022/01/20 13:53:36;;;;;;;6.70;1.77;;;4.90;99.90;;;;;;4987914;28;20225;-60
2022/01/20 13:56:09;;;;;;;8.03;2.13;;;4.80;99.90;;;;;;4982035;28;20802;-60
2022/01/20 13:58:38;;;;;;;10.70;2.80;;;4.70;99.90;;;;;;4980286;28;20198;-60
2022/01/20 14:01:08;;;;;;;8.13;1.90;;;4.60;99.90;;;;;;4987201;28;20201;-59
2022/01/20 14:03:40;;;;;;;5.63;2.07;;;4.90;99.90;;;;;;4989393;28;20208;-60
2022/01/20 14:06:10;;;;;;;8.60;2.30;;;4.90;99.90;;;;;;4982513;28;20293;-60
2022/01/20 14:08:39;;;;;;;5.67;2.00;;;4.80;99.90;;;;;;4986298;28;20314;-60
2022/01/20 14:11:08;;;;;;;9.43;3.50;;;4.70;99.90;;;;;;4970517;28;20225;-60
2022/01/20 14:13:37;;;;;;;8.30;2.80;;;4.60;99.90;;;;;;4990826;28;20229;-60
2022/01/20 14:16:04;;;;;;;11.03;3.13;;;4.50;99.90;;;;;;4990260;28;20193;-59
2022/01/20 14:18:42;;;;;;;13.30;4.90;;;4.50;99.90;;;;;;5008860;28;20687;-59
2022/01/20 14:21:10;;;;;;;9.97;2.60;;;4.40;99.90;;;;;;4990549;28;20744;-60
2022/01/20 14:23:42;;;;;;;7.47;3.17;;;4.40;99.90;;;;;;4988272;28;20244;-60
2022/01/20 14:26:12;;;;;;;10.60;3.60;;;4.40;99.90;;;;;;4984488;28;20205;-60
2022/01/20 14:28:39;;;;;;;9.87;3.87;;;4.30;99.90;;;;;;4988553;28;20197;-60
2022/01/20 14:31:06;;;;;;;8.43;3.70;;;4.20;99.90;;;;;;4986942;28;20259;-60